Time;durP1;ratioP1;P1;durP2;ratioP2;P2;SDS_P1;SDS_P2;PMS_P1;PMS_P2;Temp;Humidity;BMP_temperature;BMP_pressure;BME280_temperature;BME280_humidity;BME280_pressure;Samples;Min_cycle;Max_cycle;Signal;HPM_P1;HPM_P2
2021/08/20 00:02:00;;;;;;;3.17;2.43;;;16.90;99.90;;;;;;5019540;28;20531;-67
2021/08/20 00:04:27;;;;;;;7.47;2.50;;;16.90;99.90;;;;;;5010795;28;20587;-67
2021/08/20 00:06:54;;;;;;;2.97;2.60;;;16.90;99.90;;;;;;5013164;28;20449;-66
2021/08/20 00:09:23;;;;;;;3.27;2.77;;;16.80;99.90;;;;;;5016679;28;20444;-67
2021/08/20 00:11:50;;;;;;;3.83;2.53;;;16.80;99.90;;;;;;5016720;28;20476;-67
2021/08/20 00:14:17;;;;;;;3.50;3.13;;;16.80;99.90;;;;;;5016956;28;20882;-67
2021/08/20 00:16:45;;;;;;;5.67;3.30;;;16.80;99.90;;;;;;5010749;28;20562;-67
2021/08/20 00:19:12;;;;;;;3.73;3.10;;;16.80;99.90;;;;;;5016608;28;20542;-68
2021/08/20 00:21:40;;;;;;;3.70;2.70;;;16.80;99.90;;;;;;5016758;28;20445;-67
2021/08/20 00:24:07;;;;;;;4.30;3.70;;;16.80;99.90;;;;;;5009113;28;21048;-67
2021/08/20 00:26:36;;;;;;;6.07;3.00;;;16.80;99.90;;;;;;5015770;28;20449;-67
2021/08/20 00:29:03;;;;;;;4.27;3.07;;;16.80;99.90;;;;;;5007749;28;20514;-67
2021/08/20 00:31:31;;;;;;;5.30;3.43;;;16.80;99.90;;;;;;5012282;28;20562;-67
2021/08/20 00:33:58;;;;;;;11.33;3.83;;;16.80;99.90;;;;;;5017935;28;20522;-67
2021/08/20 00:36:25;;;;;;;5.10;3.60;;;16.70;99.90;;;;;;5014894;28;20584;-65
2021/08/20 00:38:52;;;;;;;7.43;2.67;;;16.80;99.90;;;;;;5017474;28;20492;-66
2021/08/20 00:41:19;;;;;;;5.73;2.97;;;16.80;99.90;;;;;;5021577;28;20466;-66
2021/08/20 00:43:49;;;;;;;5.97;3.50;;;16.70;99.90;;;;;;5015996;28;20615;-67
2021/08/20 00:46:17;;;;;;;8.83;3.20;;;16.70;99.90;;;;;;5009950;28;20563;-66
2021/08/20 00:48:44;;;;;;;5.60;3.60;;;16.60;99.90;;;;;;5021336;28;20943;-65
2021/08/20 00:51:18;;;;;;;5.90;3.87;;;16.60;99.90;;;;;;5013646;28;20588;-68
2021/08/20 00:53:46;;;;;;;5.70;3.83;;;16.70;99.90;;;;;;5015692;28;20463;-67
2021/08/20 00:56:13;;;;;;;5.57;4.43;;;16.80;99.90;;;;;;5015199;28;20520;-67
2021/08/20 00:58:40;;;;;;;5.83;3.13;;;16.80;99.90;;;;;;5015021;28;20546;-66
2021/08/20 01:01:09;;;;;;;3.40;2.73;;;16.80;99.90;;;;;;5017048;28;20514;-67
2021/08/20 01:03:38;;;;;;;7.70;3.37;;;16.80;99.90;;;;;;5009373;28;20495;-66
2021/08/20 01:06:06;;;;;;;7.70;3.97;;;16.90;99.90;;;;;;5020824;28;20453;-67
2021/08/20 01:08:35;;;;;;;6.20;4.07;;;16.90;99.90;;;;;;5016565;28;20493;-67
2021/08/20 01:11:03;;;;;;;4.77;3.97;;;16.90;99.90;;;;;;5012821;28;20534;-67
2021/08/20 01:13:33;;;;;;;7.83;5.17;;;16.90;99.90;;;;;;5020899;28;20460;-67
2021/08/20 01:16:01;;;;;;;7.40;4.50;;;16.90;99.90;;;;;;5019394;28;20495;-67
2021/08/20 01:18:30;;;;;;;5.03;3.67;;;17.00;99.90;;;;;;5017800;28;20560;-67
2021/08/20 01:21:00;;;;;;;6.17;3.67;;;16.90;99.90;;;;;;5020155;28;20528;-68
2021/08/20 01:23:28;;;;;;;5.87;3.63;;;16.90;99.90;;;;;;5013554;28;20560;-67
2021/08/20 01:25:57;;;;;;;7.63;4.80;;;16.90;99.90;;;;;;5019196;28;20503;-67
2021/08/20 01:28:25;;;;;;;5.63;3.70;;;16.90;99.90;;;;;;5016295;28;20575;-67
2021/08/20 01:30:52;;;;;;;6.40;3.20;;;16.90;99.90;;;;;;5007132;28;20540;-68
2021/08/20 01:33:20;;;;;;;6.90;4.10;;;16.90;99.90;;;;;;5021445;28;20457;-67
2021/08/20 01:35:46;;;;;;;11.03;3.87;;;16.90;99.90;;;;;;5010522;28;21129;-67
2021/08/20 01:38:13;;;;;;;6.97;4.20;;;16.90;99.90;;;;;;5012422;28;20469;-68
2021/08/20 01:40:40;;;;;;;7.63;4.43;;;16.80;99.90;;;;;;5016927;28;20974;-67
2021/08/20 01:43:09;;;;;;;7.80;4.63;;;16.90;99.90;;;;;;5014927;28;20936;-67
2021/08/20 01:45:36;;;;;;;8.80;4.37;;;16.90;99.90;;;;;;5012618;28;20444;-65
2021/08/20 01:48:03;;;;;;;10.23;4.73;;;16.80;99.90;;;;;;5015638;28;20503;-66
2021/08/20 01:50:30;;;;;;;5.70;4.40;;;16.80;99.90;;;;;;5010948;28;20972;-67
2021/08/20 01:52:57;;;;;;;6.70;4.60;;;16.80;99.90;;;;;;5012304;28;20471;-67
2021/08/20 01:55:24;;;;;;;7.70;4.23;;;16.70;99.90;;;;;;5017225;28;20573;-67
2021/08/20 01:57:51;;;;;;;5.63;3.50;;;16.70;99.90;;;;;;5012813;28;20576;-67
2021/08/20 02:00:20;;;;;;;7.10;5.00;;;16.90;99.90;;;;;;5023852;28;20472;-67
2021/08/20 02:02:47;;;;;;;10.13;5.30;;;16.80;99.90;;;;;;5014031;28;20453;-67
2021/08/20 02:05:14;;;;;;;5.10;4.27;;;16.70;99.90;;;;;;5013480;28;21021;-67
2021/08/20 02:07:41;;;;;;;6.23;4.30;;;16.80;99.90;;;;;;5013145;28;21246;-66
2021/08/20 02:10:10;;;;;;;6.57;4.03;;;16.80;99.90;;;;;;5012366;28;20532;-67
2021/08/20 02:12:37;;;;;;;10.20;4.87;;;16.80;99.90;;;;;;5017536;28;20454;-67
2021/08/20 02:15:05;;;;;;;9.20;4.70;;;16.90;99.90;;;;;;5021163;28;20484;-67
2021/08/20 02:17:33;;;;;;;7.70;4.53;;;16.90;99.90;;;;;;5010021;28;20530;-65
2021/08/20 02:20:01;;;;;;;6.00;3.67;;;17.00;99.90;;;;;;5011679;28;20478;-67
2021/08/20 02:22:28;;;;;;;13.00;5.10;;;17.00;99.90;;;;;;5015570;28;20504;-64
2021/08/20 02:24:55;;;;;;;9.53;5.93;;;17.10;99.90;;;;;;5008616;28;22348;-67
2021/08/20 02:27:22;;;;;;;10.93;4.13;;;17.00;99.90;;;;;;5015607;28;20493;-65
2021/08/20 02:29:49;;;;;;;5.63;3.77;;;17.00;99.90;;;;;;5014635;28;21114;-67
2021/08/20 02:32:17;;;;;;;8.70;4.50;;;17.00;99.90;;;;;;5012663;28;21456;-67
2021/08/20 02:34:45;;;;;;;5.90;3.50;;;17.10;99.90;;;;;;5007869;28;20472;-67
2021/08/20 02:37:12;;;;;;;6.27;4.30;;;17.10;99.90;;;;;;5014604;28;20518;-67
2021/08/20 02:39:39;;;;;;;6.93;5.40;;;17.10;99.90;;;;;;5012984;28;20805;-67
2021/08/20 02:42:07;;;;;;;6.20;4.07;;;17.10;99.90;;;;;;5012545;28;20908;-67
2021/08/20 02:44:34;;;;;;;5.33;4.20;;;17.00;99.90;;;;;;5008617;28;20460;-67
2021/08/20 02:47:01;;;;;;;4.83;3.60;;;17.00;99.90;;;;;;5010792;28;20547;-68
2021/08/20 02:49:27;;;;;;;5.30;4.10;;;17.00;99.90;;;;;;5012043;28;20571;-67
2021/08/20 02:51:56;;;;;;;7.00;4.30;;;17.00;99.90;;;;;;5005090;28;20484;-67
2021/08/20 02:54:23;;;;;;;6.03;4.93;;;17.10;99.90;;;;;;5009171;28;20488;-66
2021/08/20 02:56:49;;;;;;;7.63;4.50;;;17.10;99.90;;;;;;5009018;28;20571;-67
2021/08/20 02:59:16;;;;;;;7.60;5.00;;;17.10;99.90;;;;;;5013006;28;20555;-67
2021/08/20 03:01:48;;;;;;;7.57;4.47;;;17.10;99.90;;;;;;5015253;28;20964;-67
2021/08/20 03:04:15;;;;;;;10.33;5.23;;;17.10;99.90;;;;;;5009185;28;20459;-67
2021/08/20 03:06:43;;;;;;;8.73;6.90;;;17.00;99.90;;;;;;5001245;28;20465;-67
2021/08/20 03:11:47;;;;;;;6.33;4.07;;;17.10;99.90;;;;;;4970545;28;20778;-74
2021/08/20 03:14:14;;;;;;;7.70;6.07;;;17.10;99.90;;;;;;4977395;28;20463;-73
2021/08/20 03:16:41;;;;;;;15.10;5.90;;;17.10;99.90;;;;;;4976125;28;20585;-70
2021/08/20 03:19:08;;;;;;;7.97;5.23;;;17.00;99.90;;;;;;4973140;28;20554;-71
2021/08/20 03:21:35;;;;;;;10.77;6.70;;;17.00;99.90;;;;;;4967503;28;20865;-71
2021/08/20 03:24:03;;;;;;;8.00;5.77;;;16.90;99.90;;;;;;4980834;28;20570;-70
2021/08/20 03:26:30;;;;;;;6.97;4.60;;;17.00;99.90;;;;;;4967574;28;21696;-69
2021/08/20 03:28:58;;;;;;;13.20;5.97;;;16.80;99.90;;;;;;4975717;28;20541;-69
2021/08/20 03:31:26;;;;;;;12.03;6.80;;;16.80;99.90;;;;;;4980953;28;20474;-68
2021/08/20 03:33:54;;;;;;;10.30;5.10;;;16.70;99.90;;;;;;4983843;28;20553;-70
2021/08/20 03:36:21;;;;;;;23.40;5.50;;;16.70;99.90;;;;;;4984244;28;20585;-69
2021/08/20 03:38:50;;;;;;;12.37;7.70;;;16.70;99.90;;;;;;4977723;28;20549;-69
2021/08/20 03:41:17;;;;;;;14.63;6.30;;;16.70;99.90;;;;;;4976341;28;20697;-68
2021/08/20 03:43:43;;;;;;;8.83;5.50;;;16.60;99.90;;;;;;4973669;28;20478;-69
2021/08/20 03:46:12;;;;;;;10.50;6.83;;;16.60;99.90;;;;;;4976981;28;20538;-69
2021/08/20 03:48:39;;;;;;;11.17;7.27;;;16.70;99.90;;;;;;4978801;28;20541;-69
2021/08/20 03:51:06;;;;;;;16.13;7.13;;;16.70;99.90;;;;;;4977363;28;20572;-71
2021/08/20 03:53:33;;;;;;;10.60;6.93;;;16.80;99.90;;;;;;4990209;28;20517;-69
2021/08/20 03:56:00;;;;;;;7.97;5.80;;;16.70;99.90;;;;;;4988171;28;20561;-71
2021/08/20 03:58:27;;;;;;;15.93;6.63;;;16.60;99.90;;;;;;4983958;28;20546;-68
2021/08/20 04:00:54;;;;;;;8.20;5.47;;;16.60;99.90;;;;;;4973780;28;20505;-68
2021/08/20 04:03:23;;;;;;;9.23;5.17;;;16.70;99.90;;;;;;4980682;28;20975;-70
2021/08/20 04:05:50;;;;;;;8.77;5.40;;;16.70;99.90;;;;;;4979882;28;20549;-75
2021/08/20 04:08:18;;;;;;;7.30;5.30;;;16.70;99.90;;;;;;4980004;28;20554;-69
2021/08/20 04:10:46;;;;;;;11.00;6.70;;;16.70;99.90;;;;;;4987832;28;20481;-69
2021/08/20 04:13:14;;;;;;;11.90;5.73;;;16.60;99.90;;;;;;4982339;28;20457;-70
2021/08/20 04:15:41;;;;;;;10.00;5.00;;;16.50;99.90;;;;;;4974808;28;20523;-71
2021/08/20 04:18:08;;;;;;;9.33;5.80;;;16.50;99.90;;;;;;4977697;28;20438;-70
2021/08/20 04:20:37;;;;;;;8.00;5.83;;;16.30;99.90;;;;;;4982219;28;20502;-72
2021/08/20 04:23:05;;;;;;;7.87;5.63;;;16.20;99.90;;;;;;4979741;28;20811;-68
2021/08/20 04:25:32;;;;;;;8.67;5.27;;;16.20;99.90;;;;;;4984770;28;20458;-69
2021/08/20 04:27:59;;;;;;;17.77;5.43;;;16.10;99.90;;;;;;4986011;28;20453;-68
2021/08/20 04:30:29;;;;;;;10.37;5.17;;;16.20;99.90;;;;;;4985498;28;20481;-71
2021/08/20 04:32:56;;;;;;;11.03;6.10;;;16.20;99.90;;;;;;4971805;28;20494;-72
2021/08/20 04:35:23;;;;;;;13.90;5.97;;;16.10;99.90;;;;;;4981049;28;20982;-68
2021/08/20 04:37:51;;;;;;;9.90;5.87;;;16.20;99.90;;;;;;4979077;28;21118;-70
2021/08/20 04:40:19;;;;;;;11.33;7.60;;;16.10;99.90;;;;;;4977597;28;20500;-68
2021/08/20 04:42:46;;;;;;;11.00;6.53;;;16.00;99.90;;;;;;4984455;28;20451;-71
2021/08/20 04:45:15;;;;;;;14.60;8.33;;;16.10;99.90;;;;;;4976905;28;21049;-69
2021/08/20 04:47:42;;;;;;;13.87;8.80;;;16.10;99.90;;;;;;4983190;28;20446;-70
2021/08/20 04:50:11;;;;;;;11.70;7.23;;;16.10;99.90;;;;;;4974501;28;20467;-69
2021/08/20 04:52:37;;;;;;;13.27;8.47;;;16.10;99.90;;;;;;4978259;28;20556;-69
2021/08/20 04:55:07;;;;;;;12.40;7.47;;;16.00;99.90;;;;;;4980806;28;20825;-69
2021/08/20 04:57:34;;;;;;;12.53;7.77;;;15.90;99.90;;;;;;4978567;28;20895;-69
2021/08/20 05:00:01;;;;;;;14.40;8.00;;;16.00;99.90;;;;;;4984849;28;20870;-70
2021/08/20 05:02:29;;;;;;;15.80;8.87;;;15.90;99.90;;;;;;4983979;28;20454;-71
2021/08/20 05:04:56;;;;;;;14.07;8.70;;;15.90;99.90;;;;;;4986456;28;20462;-69
2021/08/20 05:07:23;;;;;;;14.93;7.77;;;15.80;99.90;;;;;;4984601;28;20478;-69
2021/08/20 05:09:50;;;;;;;17.33;9.03;;;15.90;99.90;;;;;;4996051;28;20545;-69
2021/08/20 05:12:18;;;;;;;12.07;7.53;;;16.00;99.90;;;;;;4978331;28;20529;-73
2021/08/20 05:14:45;;;;;;;16.77;7.80;;;16.00;99.90;;;;;;4988187;28;20551;-71
2021/08/20 05:17:12;;;;;;;13.77;7.30;;;16.00;99.90;;;;;;4990892;28;20677;-69
2021/08/20 05:19:39;;;;;;;17.70;8.73;;;16.00;99.90;;;;;;4990828;28;20923;-69
2021/08/20 05:22:07;;;;;;;20.17;8.83;;;16.10;99.90;;;;;;4979927;28;20450;-72
2021/08/20 05:24:34;;;;;;;13.30;11.63;;;16.20;99.90;;;;;;4997445;28;20469;-69
2021/08/20 05:27:01;;;;;;;12.90;7.30;;;16.30;99.90;;;;;;5006262;28;20446;-68
2021/08/20 05:29:29;;;;;;;14.63;9.13;;;16.50;99.90;;;;;;4992642;28;20501;-70
2021/08/20 05:31:56;;;;;;;12.77;7.10;;;16.80;99.90;;;;;;4987708;28;20560;-70
2021/08/20 05:34:23;;;;;;;14.40;8.17;;;16.90;99.90;;;;;;4980620;28;20544;-69
2021/08/20 05:36:50;;;;;;;10.53;6.80;;;17.00;99.90;;;;;;4984361;28;20570;-69
2021/08/20 05:39:17;;;;;;;10.17;6.77;;;17.20;99.90;;;;;;4992123;28;20447;-73
2021/08/20 05:41:44;;;;;;;15.03;7.30;;;17.10;99.90;;;;;;4989229;28;20921;-73
2021/08/20 05:44:11;;;;;;;12.87;8.13;;;17.20;99.90;;;;;;4983377;28;21014;-69
2021/08/20 05:46:39;;;;;;;10.20;6.60;;;17.10;99.90;;;;;;4983632;28;21094;-69
2021/08/20 05:49:07;;;;;;;16.90;9.33;;;17.00;99.90;;;;;;4982901;28;20951;-70
2021/08/20 05:51:34;;;;;;;18.33;8.23;;;17.10;99.90;;;;;;4991542;28;20901;-71
2021/08/20 05:54:01;;;;;;;16.17;8.20;;;17.20;99.90;;;;;;4989297;28;20549;-69
2021/08/20 05:56:28;;;;;;;12.43;7.40;;;17.40;99.90;;;;;;4995142;28;20474;-71
2021/08/20 05:58:55;;;;;;;11.97;6.30;;;17.60;99.90;;;;;;4987263;28;20895;-70
2021/08/20 06:01:22;;;;;;;13.90;5.53;;;17.70;99.90;;;;;;4986468;28;20900;-69
2021/08/20 06:03:50;;;;;;;12.27;7.43;;;18.00;99.90;;;;;;4976127;28;20739;-68
2021/08/20 06:06:17;;;;;;;9.80;7.30;;;18.10;99.90;;;;;;4990711;28;20446;-72
2021/08/20 06:08:44;;;;;;;13.47;7.87;;;18.20;99.90;;;;;;4974354;28;20907;-69
2021/08/20 06:11:11;;;;;;;11.57;6.90;;;18.50;99.90;;;;;;4989550;28;20506;-72
2021/08/20 06:13:38;;;;;;;8.30;5.83;;;18.70;99.90;;;;;;4983368;28;20537;-69
2021/08/20 06:16:05;;;;;;;7.80;5.63;;;19.00;99.90;;;;;;4977849;28;20469;-69
2021/08/20 06:18:32;;;;;;;13.00;7.30;;;18.60;99.90;;;;;;4987335;28;20538;-70
2021/08/20 06:21:00;;;;;;;15.13;8.07;;;18.50;99.90;;;;;;4986699;28;20474;-71
2021/08/20 06:23:27;;;;;;;8.87;6.10;;;18.60;99.90;;;;;;4990361;28;20498;-70
2021/08/20 06:25:54;;;;;;;8.60;5.87;;;18.90;99.90;;;;;;4993287;28;20970;-69
2021/08/20 06:28:22;;;;;;;11.57;6.97;;;19.30;99.90;;;;;;4995612;28;20513;-68
2021/08/20 06:30:49;;;;;;;8.70;6.53;;;19.30;99.90;;;;;;4987678;28;20895;-70
2021/08/20 06:33:16;;;;;;;10.07;5.67;;;19.30;99.90;;;;;;4978621;28;20535;-72
2021/08/20 06:35:43;;;;;;;11.70;5.50;;;19.50;99.90;;;;;;4972122;28;20962;-68
2021/08/20 06:38:11;;;;;;;10.87;6.50;;;19.70;99.90;;;;;;4992288;28;20580;-69
2021/08/20 06:40:38;;;;;;;14.20;7.97;;;20.10;99.90;;;;;;4987311;28;20503;-69
2021/08/20 06:43:05;;;;;;;11.03;6.57;;;20.40;99.90;;;;;;4994205;28;20512;-71
2021/08/20 06:45:33;;;;;;;16.77;8.03;;;20.50;99.90;;;;;;4988414;28;20533;-69
2021/08/20 06:47:59;;;;;;;15.60;8.07;;;20.00;99.90;;;;;;4985013;28;20462;-70
2021/08/20 06:50:26;;;;;;;14.03;8.10;;;19.80;99.90;;;;;;4977868;28;20566;-69
2021/08/20 06:52:53;;;;;;;16.73;7.90;;;19.70;99.90;;;;;;4994065;28;20549;-70
2021/08/20 06:55:22;;;;;;;16.17;10.17;;;19.50;99.90;;;;;;4991545;28;20557;-70
2021/08/20 06:57:49;;;;;;;21.60;9.80;;;19.40;99.90;;;;;;4989988;28;20908;-71
2021/08/20 07:00:17;;;;;;;17.63;8.70;;;19.20;99.90;;;;;;4981423;28;20972;-72
2021/08/20 07:02:44;;;;;;;15.87;7.47;;;19.20;99.90;;;;;;4984819;28;20509;-73
2021/08/20 07:05:12;;;;;;;19.70;9.17;;;19.10;99.90;;;;;;4988276;28;20683;-69
2021/08/20 07:07:40;;;;;;;22.80;9.73;;;19.00;99.90;;;;;;4977872;28;20797;-69
2021/08/20 07:10:09;;;;;;;20.10;10.30;;;18.80;99.90;;;;;;4987972;28;20481;-70
2021/08/20 07:12:37;;;;;;;17.13;8.80;;;18.70;99.90;;;;;;4991580;28;20453;-68
2021/08/20 07:15:04;;;;;;;23.87;8.53;;;18.90;99.90;;;;;;4986136;28;20574;-68
2021/08/20 07:17:32;;;;;;;19.90;9.83;;;18.90;99.90;;;;;;4994500;28;20587;-69
2021/08/20 07:19:59;;;;;;;21.03;10.50;;;19.00;99.90;;;;;;5000171;28;20483;-70
2021/08/20 07:22:26;;;;;;;21.83;11.47;;;19.20;99.90;;;;;;4997067;28;20488;-71
2021/08/20 07:24:53;;;;;;;19.57;9.97;;;19.30;99.90;;;;;;4981804;28;20960;-70
2021/08/20 07:27:21;;;;;;;17.57;9.63;;;19.30;99.90;;;;;;5004461;28;20503;-68
2021/08/20 07:29:49;;;;;;;18.80;10.63;;;19.30;99.90;;;;;;4995814;28;20946;-70
2021/08/20 07:32:17;;;;;;;18.73;10.90;;;19.30;99.90;;;;;;4987039;28;20536;-70
2021/08/20 07:34:44;;;;;;;16.40;9.43;;;19.40;99.90;;;;;;5001744;28;20499;-71
2021/08/20 07:37:11;;;;;;;16.17;8.03;;;19.30;99.90;;;;;;4984558;28;20922;-69
2021/08/20 07:39:38;;;;;;;15.20;8.50;;;19.50;99.90;;;;;;4995069;28;20532;-70
2021/08/20 07:42:06;;;;;;;18.70;9.10;;;19.60;99.90;;;;;;4988919;28;20497;-68
2021/08/20 07:44:33;;;;;;;16.63;8.50;;;19.60;99.90;;;;;;4983300;28;20513;-69
2021/08/20 07:47:02;;;;;;;13.30;6.60;;;19.50;99.90;;;;;;4990947;28;20537;-70
2021/08/20 07:49:29;;;;;;;18.57;10.27;;;19.40;99.90;;;;;;5001182;28;20992;-69
2021/08/20 07:51:57;;;;;;;25.17;11.10;;;19.30;99.90;;;;;;4985133;28;20461;-68
2021/08/20 07:54:24;;;;;;;19.73;11.10;;;19.20;99.90;;;;;;4982374;28;20510;-72
2021/08/20 07:56:51;;;;;;;15.67;10.10;;;19.30;99.90;;;;;;4989996;28;20574;-70
2021/08/20 07:59:18;;;;;;;19.93;11.73;;;19.50;99.90;;;;;;4996578;28;20467;-69
2021/08/20 08:01:45;;;;;;;15.87;8.60;;;19.70;99.90;;;;;;4987338;28;20510;-69
2021/08/20 08:04:14;;;;;;;26.77;10.83;;;19.50;99.90;;;;;;4986807;28;20903;-69
2021/08/20 08:06:40;;;;;;;19.30;10.07;;;19.30;99.90;;;;;;4991618;28;20457;-71
2021/08/20 08:09:08;;;;;;;24.47;11.20;;;19.10;99.90;;;;;;4982417;28;20560;-69
2021/08/20 08:11:35;;;;;;;17.27;9.83;;;19.10;99.90;;;;;;4987716;28;20904;-72
2021/08/20 08:14:05;;;;;;;15.90;9.20;;;19.40;99.90;;;;;;4995356;28;20612;-69
2021/08/20 08:16:33;;;;;;;22.00;11.20;;;19.50;99.90;;;;;;4993527;28;20465;-68
2021/08/20 08:19:00;;;;;;;20.10;11.30;;;19.50;99.90;;;;;;4998846;28;20488;-69
2021/08/20 08:21:29;;;;;;;22.00;10.57;;;19.60;99.90;;;;;;4998379;28;20909;-71
2021/08/20 08:23:57;;;;;;;17.60;9.17;;;19.60;99.90;;;;;;4983685;28;20470;-69
2021/08/20 08:26:24;;;;;;;27.67;13.67;;;19.70;99.90;;;;;;5003204;28;20453;-68
2021/08/20 08:28:51;;;;;;;25.27;12.37;;;19.80;99.90;;;;;;4996594;28;20545;-67
2021/08/20 08:31:18;;;;;;;19.37;10.63;;;19.90;99.90;;;;;;5001731;28;20950;-68
2021/08/20 08:33:45;;;;;;;21.20;10.50;;;20.20;99.90;;;;;;4998154;28;20524;-73
2021/08/20 08:36:12;;;;;;;23.83;12.57;;;20.80;99.90;;;;;;4980672;28;20533;-71
2021/08/20 08:38:40;;;;;;;21.43;10.50;;;21.30;99.90;;;;;;4994487;28;20584;-70
2021/08/20 08:41:08;;;;;;;22.50;12.50;;;21.70;99.90;;;;;;4985678;28;20646;-69
2021/08/20 08:43:35;;;;;;;23.13;10.87;;;22.00;99.90;;;;;;4989588;28;20490;-71
2021/08/20 08:46:04;;;;;;;27.20;9.40;;;22.40;99.90;;;;;;4989665;28;20459;-70
2021/08/20 08:48:32;;;;;;;17.47;8.50;;;22.80;99.90;;;;;;4991549;28;20453;-70
2021/08/20 08:51:00;;;;;;;15.67;10.37;;;24.00;99.90;;;;;;4989449;28;20478;-70
2021/08/20 08:53:27;;;;;;;26.17;13.60;;;23.70;99.90;;;;;;4996979;28;20453;-74
2021/08/20 08:55:55;;;;;;;19.57;11.20;;;23.60;99.90;;;;;;4985418;28;20534;-73
2021/08/20 08:58:23;;;;;;;18.17;10.57;;;23.70;99.90;;;;;;4988805;28;20490;-70
2021/08/20 09:00:50;;;;;;;20.07;11.07;;;23.70;99.90;;;;;;4989187;28;20982;-70
2021/08/20 09:03:24;;;;;;;14.07;8.90;;;23.50;99.90;;;;;;4985200;28;20561;-71
2021/08/20 09:05:52;;;;;;;17.70;10.57;;;23.50;99.90;;;;;;4984069;28;20482;-71
2021/08/20 09:08:21;;;;;;;16.30;10.10;;;23.70;99.90;;;;;;4989771;28;20900;-69
2021/08/20 09:10:49;;;;;;;22.47;11.83;;;23.50;99.90;;;;;;4996139;28;20533;-73
2021/08/20 09:13:19;;;;;;;20.10;11.63;;;23.50;99.90;;;;;;4992074;28;20581;-70
2021/08/20 09:15:46;;;;;;;19.73;10.93;;;23.40;99.90;;;;;;4988375;28;20882;-70
2021/08/20 09:18:22;;;;;;;20.60;13.00;;;23.30;99.90;;;;;;4985043;28;20537;-70
2021/08/20 09:20:50;;;;;;;18.67;12.40;;;22.90;99.90;;;;;;4981535;28;20516;-69
2021/08/20 09:23:22;;;;;;;19.13;10.50;;;22.60;99.90;;;;;;4992840;28;20536;-70
2021/08/20 09:25:50;;;;;;;15.37;10.07;;;22.50;99.90;;;;;;4981186;28;20565;-71
2021/08/20 09:28:21;;;;;;;19.80;9.70;;;22.60;99.90;;;;;;4995307;28;20455;-71
2021/08/20 09:31:03;;;;;;;17.10;9.97;;;22.60;99.90;;;;;;4990721;28;20490;-71
2021/08/20 09:33:31;;;;;;;17.00;10.30;;;22.20;99.90;;;;;;4984859;28;20881;-67
2021/08/20 09:36:01;;;;;;;17.80;10.47;;;22.00;99.90;;;;;;4998672;28;20528;-73
2021/08/20 09:38:29;;;;;;;12.07;6.13;;;22.10;99.90;;;;;;4990591;28;20577;-69
2021/08/20 09:40:59;;;;;;;14.10;9.57;;;22.50;99.90;;;;;;4997529;28;20474;-70
2021/08/20 09:43:30;;;;;;;13.57;8.10;;;22.70;99.90;;;;;;4977500;28;20571;-71
2021/08/20 09:46:07;;;;;;;9.33;7.13;;;24.50;99.90;;;;;;4992552;28;20446;-70
2021/08/20 09:48:46;;;;;;;19.73;9.50;;;26.00;99.90;;;;;;4981760;28;20451;-70
2021/08/20 09:51:34;;;;;;;11.03;8.43;;;27.00;99.90;;;;;;4986254;28;20492;-70
2021/08/20 09:54:03;;;;;;;10.80;7.27;;;26.90;99.90;;;;;;4977018;28;20454;-69
2021/08/20 09:56:30;;;;;;;14.40;7.90;;;26.10;99.90;;;;;;4986909;28;20501;-70
2021/08/20 09:59:02;;;;;;;11.33;7.83;;;26.20;99.90;;;;;;4988212;28;20554;-73
2021/08/20 10:01:29;;;;;;;11.30;9.10;;;26.80;99.90;;;;;;4996613;28;20544;-69
2021/08/20 10:03:58;;;;;;;8.43;6.90;;;26.50;99.90;;;;;;4982822;28;20558;-73
2021/08/20 10:06:30;;;;;;;11.00;7.50;;;25.30;99.90;;;;;;5001055;28;20548;-70
2021/08/20 10:08:59;;;;;;;10.50;9.00;;;24.60;99.90;;;;;;4996616;28;20439;-71
2021/08/20 10:11:28;;;;;;;9.67;7.50;;;24.70;99.90;;;;;;4991501;28;20989;-70
2021/08/20 10:14:00;;;;;;;9.27;6.70;;;25.10;99.90;;;;;;4989559;28;20510;-69
2021/08/20 10:16:28;;;;;;;9.17;6.83;;;26.10;99.90;;;;;;5003438;28;20449;-69
2021/08/20 10:18:56;;;;;;;10.97;7.53;;;26.00;99.90;;;;;;4991382;28;21037;-68
2021/08/20 10:21:23;;;;;;;11.73;7.40;;;25.60;99.90;;;;;;5000061;28;20985;-71
2021/08/20 10:23:50;;;;;;;11.13;9.13;;;25.30;99.90;;;;;;4983486;28;20549;-72
2021/08/20 10:26:18;;;;;;;12.33;8.40;;;25.40;99.90;;;;;;4986986;28;20577;-69
2021/08/20 10:28:46;;;;;;;11.73;8.40;;;25.90;99.90;;;;;;4982901;28;20944;-69
2021/08/20 10:31:16;;;;;;;12.37;8.70;;;26.00;99.90;;;;;;4985111;28;20478;-73
2021/08/20 10:33:43;;;;;;;10.47;6.30;;;26.60;99.90;;;;;;4984047;28;20602;-68
2021/08/20 10:36:10;;;;;;;13.83;7.87;;;28.20;99.90;;;;;;4995652;28;20463;-71
2021/08/20 10:38:43;;;;;;;9.50;6.57;;;29.50;99.90;;;;;;4980085;28;20479;-70
2021/08/20 10:41:15;;;;;;;12.23;7.10;;;29.60;99.90;;;;;;4975584;28;20475;-70
2021/08/20 10:44:00;;;;;;;10.57;7.30;;;30.60;99.90;;;;;;4974943;28;20544;-69
2021/08/20 10:47:10;;;;;;;8.67;7.30;;;30.60;99.90;;;;;;4985632;28;20489;-69
2021/08/20 10:49:48;;;;;;;7.33;5.57;;;31.10;99.90;;;;;;4979127;28;20442;-68
2021/08/20 10:52:31;;;;;;;5.97;5.43;;;29.70;99.90;;;;;;4978768;28;20469;-70
2021/08/20 10:55:24;;;;;;;10.63;6.17;;;29.30;99.90;;;;;;4988482;28;20478;-69
2021/08/20 10:58:05;;;;;;;11.23;6.37;;;29.00;99.90;;;;;;4990577;28;20848;-69
2021/08/20 11:00:35;;;;;;;8.70;7.90;;;29.70;99.90;;;;;;4983532;28;20552;-73
2021/08/20 11:03:03;;;;;;;10.10;8.03;;;29.60;99.90;;;;;;4977373;28;20476;-69
2021/08/20 11:05:49;;;;;;;10.37;7.90;;;28.40;99.90;;;;;;4983182;28;20842;-72
2021/08/20 11:08:43;;;;;;;4.90;4.43;;;28.60;99.90;;;;;;5010370;28;20440;-70
2021/08/20 11:11:44;;;;;;;3.43;3.10;;;28.40;99.90;;;;;;4987677;28;20637;-74
2021/08/20 11:14:28;;;;;;;4.30;3.30;;;27.20;99.90;;;;;;4980753;28;20459;-71
2021/08/20 11:16:55;;;;;;;5.47;3.57;;;27.30;99.90;;;;;;5002135;28;20499;-71
2021/08/20 11:20:01;;;;;;;3.67;3.30;;;27.20;99.90;;;;;;4990367;28;20517;-71
2021/08/20 11:22:31;;;;;;;6.07;4.20;;;27.00;99.90;;;;;;4972102;28;20979;-72
2021/08/20 11:25:17;;;;;;;12.37;3.83;;;27.00;99.90;;;;;;4986406;28;20466;-71
2021/08/20 11:28:02;;;;;;;3.80;3.43;;;26.30;99.90;;;;;;4990619;28;20486;-70
2021/08/20 11:30:30;;;;;;;5.93;5.13;;;26.10;99.90;;;;;;4994690;28;20541;-70
2021/08/20 11:33:16;;;;;;;5.80;3.37;;;25.70;99.90;;;;;;4989699;28;20451;-77
2021/08/20 11:35:46;;;;;;;3.90;3.10;;;25.70;99.90;;;;;;4981410;28;20559;-70
2021/08/20 11:38:21;;;;;;;6.83;4.40;;;25.60;99.90;;;;;;4981465;28;20489;-70
2021/08/20 11:40:50;;;;;;;3.30;2.93;;;25.60;99.90;;;;;;4975630;28;20469;-73
2021/08/20 11:43:18;;;;;;;7.00;3.07;;;25.20;99.90;;;;;;4978793;28;20994;-70
2021/08/20 11:45:45;;;;;;;2.50;1.93;;;24.90;99.90;;;;;;4978221;28;20470;-71
2021/08/20 11:48:12;;;;;;;4.40;2.33;;;24.90;99.90;;;;;;4996717;28;20441;-73
2021/08/20 11:50:45;;;;;;;5.30;2.53;;;25.00;99.90;;;;;;4990807;28;20479;-70
2021/08/20 11:53:12;;;;;;;3.43;1.90;;;25.60;99.90;;;;;;4990041;28;20530;-70
2021/08/20 11:55:41;;;;;;;3.67;2.33;;;25.40;99.90;;;;;;4978890;28;20470;-70
2021/08/20 11:58:08;;;;;;;2.30;2.10;;;24.80;99.90;;;;;;4981872;28;20496;-74
2021/08/20 12:00:39;;;;;;;3.03;2.37;;;24.70;99.90;;;;;;4981504;28;20541;-72
2021/08/20 12:03:07;;;;;;;2.43;1.80;;;24.80;99.90;;;;;;4977467;28;20578;-75
2021/08/20 12:05:35;;;;;;;3.33;2.33;;;24.50;99.90;;;;;;4979394;28;20528;-68
2021/08/20 12:08:14;;;;;;;2.37;2.10;;;24.90;99.90;;;;;;4982593;28;20457;-73
2021/08/20 12:10:44;;;;;;;2.50;1.80;;;25.00;99.90;;;;;;4978533;28;20469;-69
2021/08/20 12:13:12;;;;;;;3.60;2.20;;;24.70;99.90;;;;;;4972783;28;20530;-73
2021/08/20 12:15:40;;;;;;;2.07;1.63;;;24.90;99.90;;;;;;4979535;28;20484;-71
2021/08/20 12:18:20;;;;;;;2.40;2.17;;;24.70;99.90;;;;;;4994303;28;21107;-69
2021/08/20 12:20:47;;;;;;;2.80;2.20;;;24.60;99.90;;;;;;4990432;28;20485;-68
2021/08/20 12:23:14;;;;;;;2.27;1.40;;;24.80;99.90;;;;;;4987892;28;20462;-69
2021/08/20 12:25:42;;;;;;;2.27;1.50;;;25.90;99.90;;;;;;4986363;28;20459;-69
2021/08/20 12:28:13;;;;;;;2.50;1.30;;;27.20;99.90;;;;;;4987849;28;20462;-72
2021/08/20 12:30:41;;;;;;;3.10;1.50;;;27.90;99.90;;;;;;4987961;28;20493;-71
2021/08/20 12:33:09;;;;;;;1.67;1.37;;;28.20;99.90;;;;;;4978539;28;20498;-70
2021/08/20 12:35:37;;;;;;;2.70;1.93;;;28.40;99.90;;;;;;4975010;28;20458;-72
2021/08/20 12:38:07;;;;;;;1.87;1.23;;;29.10;99.90;;;;;;4977925;28;20546;-70
2021/08/20 12:40:39;;;;;;;2.70;1.43;;;29.10;99.90;;;;;;4979247;28;20573;-70
2021/08/20 12:46:19;;;;;;;1.20;0.87;;;28.70;99.90;;;;;;5092464;27;20558;-68
2021/08/20 12:49:00;;;;;;;1.60;1.20;;;30.30;99.90;;;;;;5081079;28;20449;-68
2021/08/20 12:51:27;;;;;;;1.20;0.90;;;30.20;99.90;;;;;;5079486;28;20466;-72
2021/08/20 12:54:01;;;;;;;1.70;1.40;;;30.20;99.90;;;;;;5077526;28;20446;-68
2021/08/20 12:56:32;;;;;;;1.90;1.30;;;29.40;99.90;;;;;;5079778;28;20743;-69